sensor_id;sensor_type;location;lat;lon;timestamp;P1;durP1;ratioP1;P2;durP2;ratioP2
19965;SDS011;10144;50.874;4.762;2023-11-19T00:01:07;12.00;;;2.70;;
19965;SDS011;10144;50.874;4.762;2023-11-19T00:06:20;6.18;;;2.40;;
19965;SDS011;10144;50.874;4.762;2023-11-19T00:08:49;8.45;;;2.72;;
19965;SDS011;10144;50.874;4.762;2023-11-19T00:11:30;6.13;;;2.33;;
19965;SDS011;10144;50.874;4.762;2023-11-19T00:13:59;13.93;;;2.95;;
19965;SDS011;10144;50.874;4.762;2023-11-19T00:16:27;8.77;;;2.55;;
19965;SDS011;10144;50.874;4.762;2023-11-19T00:18:56;10.90;;;2.50;;
19965;SDS011;10144;50.874;4.762;2023-11-19T00:21:25;12.48;;;2.88;;
19965;SDS011;10144;50.874;4.762;2023-11-19T00:24:02;12.68;;;2.63;;
19965;SDS011;10144;50.874;4.762;2023-11-19T00:26:40;13.55;;;2.88;;
19965;SDS011;10144;50.874;4.762;2023-11-19T00:29:07;10.40;;;2.90;;
19965;SDS011;10144;50.874;4.762;2023-11-19T00:31:36;16.55;;;3.10;;
19965;SDS011;10144;50.874;4.762;2023-11-19T00:34:05;15.05;;;3.25;;
19965;SDS011;10144;50.874;4.762;2023-11-19T00:36:31;16.95;;;3.00;;
19965;SDS011;10144;50.874;4.762;2023-11-19T00:38:58;17.02;;;3.22;;
19965;SDS011;10144;50.874;4.762;2023-11-19T00:49:02;17.00;;;2.78;;
19965;SDS011;10144;50.874;4.762;2023-11-19T00:57:18;22.27;;;3.85;;
19965;SDS011;10144;50.874;4.762;2023-11-19T01:00:01;13.35;;;3.15;;
19965;SDS011;10144;50.874;4.762;2023-11-19T01:08:31;12.95;;;3.33;;
19965;SDS011;10144;50.874;4.762;2023-11-19T01:13:48;14.68;;;3.47;;
19965;SDS011;10144;50.874;4.762;2023-11-19T01:25:15;20.90;;;3.40;;
19965;SDS011;10144;50.874;4.762;2023-11-19T01:27:47;17.30;;;3.05;;
19965;SDS011;10144;50.874;4.762;2023-11-19T01:30:19;16.67;;;2.97;;
19965;SDS011;10144;50.874;4.762;2023-11-19T01:32:51;16.63;;;2.63;;
19965;SDS011;10144;50.874;4.762;2023-11-19T01:35:24;26.75;;;3.10;;
19965;SDS011;10144;50.874;4.762;2023-11-19T01:40:37;24.85;;;3.22;;
19965;SDS011;10144;50.874;4.762;2023-11-19T01:46:12;20.30;;;2.95;;
19965;SDS011;10144;50.874;4.762;2023-11-19T01:51:35;18.90;;;2.75;;
19965;SDS011;10144;50.874;4.762;2023-11-19T01:54:02;16.35;;;3.10;;
19965;SDS011;10144;50.874;4.762;2023-11-19T01:56:31;19.55;;;3.22;;
19965;SDS011;10144;50.874;4.762;2023-11-19T01:58:59;19.05;;;3.13;;
19965;SDS011;10144;50.874;4.762;2023-11-19T02:01:32;22.20;;;2.83;;
19965;SDS011;10144;50.874;4.762;2023-11-19T02:04:01;21.73;;;2.50;;
19965;SDS011;10144;50.874;4.762;2023-11-19T02:06:27;20.50;;;3.25;;
19965;SDS011;10144;50.874;4.762;2023-11-19T02:08:59;22.08;;;2.97;;
19965;SDS011;10144;50.874;4.762;2023-11-19T02:11:28;20.80;;;3.38;;
19965;SDS011;10144;50.874;4.762;2023-11-19T02:13:56;21.30;;;2.65;;
19965;SDS011;10144;50.874;4.762;2023-11-19T02:16:22;25.38;;;2.47;;
19965;SDS011;10144;50.874;4.762;2023-11-19T02:18:48;23.48;;;2.92;;
19965;SDS011;10144;50.874;4.762;2023-11-19T02:21:17;31.15;;;3.95;;
19965;SDS011;10144;50.874;4.762;2023-11-19T02:23:46;22.33;;;3.22;;
19965;SDS011;10144;50.874;4.762;2023-11-19T02:29:25;23.92;;;2.97;;
19965;SDS011;10144;50.874;4.762;2023-11-19T02:31:53;22.50;;;3.47;;
19965;SDS011;10144;50.874;4.762;2023-11-19T02:34:26;25.25;;;3.10;;
19965;SDS011;10144;50.874;4.762;2023-11-19T02:36:51;31.73;;;3.67;;
19965;SDS011;10144;50.874;4.762;2023-11-19T02:39:24;27.48;;;3.55;;
19965;SDS011;10144;50.874;4.762;2023-11-19T02:44:46;25.40;;;2.92;;
19965;SDS011;10144;50.874;4.762;2023-11-19T02:47:16;23.92;;;3.67;;
19965;SDS011;10144;50.874;4.762;2023-11-19T02:52:11;27.55;;;3.08;;
19965;SDS011;10144;50.874;4.762;2023-11-19T02:54:37;26.25;;;3.13;;
19965;SDS011;10144;50.874;4.762;2023-11-19T02:57:03;22.38;;;3.63;;
19965;SDS011;10144;50.874;4.762;2023-11-19T02:59:29;21.98;;;3.67;;
19965;SDS011;10144;50.874;4.762;2023-11-19T03:02:04;23.55;;;3.58;;
19965;SDS011;10144;50.874;4.762;2023-11-19T03:07:03;29.15;;;2.90;;
19965;SDS011;10144;50.874;4.762;2023-11-19T03:09:31;25.85;;;3.10;;
19965;SDS011;10144;50.874;4.762;2023-11-19T03:11:57;25.15;;;3.60;;
19965;SDS011;10144;50.874;4.762;2023-11-19T03:16:54;30.00;;;3.45;;
19965;SDS011;10144;50.874;4.762;2023-11-19T03:19:20;24.85;;;2.92;;
19965;SDS011;10144;50.874;4.762;2023-11-19T03:21:48;23.30;;;3.28;;
19965;SDS011;10144;50.874;4.762;2023-11-19T03:24:17;17.85;;;2.55;;
19965;SDS011;10144;50.874;4.762;2023-11-19T03:26:43;23.45;;;3.30;;
19965;SDS011;10144;50.874;4.762;2023-11-19T03:29:15;18.95;;;3.17;;
19965;SDS011;10144;50.874;4.762;2023-11-19T03:31:44;18.38;;;2.50;;
19965;SDS011;10144;50.874;4.762;2023-11-19T03:34:12;24.42;;;3.83;;
19965;SDS011;10144;50.874;4.762;2023-11-19T03:36:38;25.45;;;3.35;;
19965;SDS011;10144;50.874;4.762;2023-11-19T03:39:09;21.50;;;3.10;;
19965;SDS011;10144;50.874;4.762;2023-11-19T03:41:38;27.60;;;3.42;;
19965;SDS011;10144;50.874;4.762;2023-11-19T03:44:05;20.10;;;3.25;;
19965;SDS011;10144;50.874;4.762;2023-11-19T03:46:34;26.40;;;2.75;;
19965;SDS011;10144;50.874;4.762;2023-11-19T03:49:01;22.42;;;3.60;;
19965;SDS011;10144;50.874;4.762;2023-11-19T03:56:28;28.00;;;3.72;;
19965;SDS011;10144;50.874;4.762;2023-11-19T03:58:53;28.45;;;3.22;;
19965;SDS011;10144;50.874;4.762;2023-11-19T04:01:26;32.85;;;3.47;;
19965;SDS011;10144;50.874;4.762;2023-11-19T04:03:53;25.75;;;3.47;;
19965;SDS011;10144;50.874;4.762;2023-11-19T04:06:26;20.45;;;3.25;;
19965;SDS011;10144;50.874;4.762;2023-11-19T04:11:23;20.27;;;3.22;;
19965;SDS011;10144;50.874;4.762;2023-11-19T04:14:04;22.45;;;2.83;;
19965;SDS011;10144;50.874;4.762;2023-11-19T04:16:36;17.42;;;2.78;;
19965;SDS011;10144;50.874;4.762;2023-11-19T04:19:03;23.80;;;3.03;;
19965;SDS011;10144;50.874;4.762;2023-11-19T04:21:30;26.23;;;3.78;;
19965;SDS011;10144;50.874;4.762;2023-11-19T04:24:01;34.47;;;3.28;;
19965;SDS011;10144;50.874;4.762;2023-11-19T04:26:27;30.93;;;3.40;;
19965;SDS011;10144;50.874;4.762;2023-11-19T04:28:55;27.55;;;3.72;;
19965;SDS011;10144;50.874;4.762;2023-11-19T04:31:28;26.70;;;3.28;;
19965;SDS011;10144;50.874;4.762;2023-11-19T04:33:59;27.02;;;2.97;;
19965;SDS011;10144;50.874;4.762;2023-11-19T04:36:38;22.23;;;3.08;;
19965;SDS011;10144;50.874;4.762;2023-11-19T04:41:56;31.70;;;3.00;;
19965;SDS011;10144;50.874;4.762;2023-11-19T04:44:24;25.63;;;3.00;;
19965;SDS011;10144;50.874;4.762;2023-11-19T04:46:53;26.60;;;3.67;;
19965;SDS011;10144;50.874;4.762;2023-11-19T04:49:20;25.85;;;3.60;;
19965;SDS011;10144;50.874;4.762;2023-11-19T04:51:48;34.90;;;3.92;;
19965;SDS011;10144;50.874;4.762;2023-11-19T04:54:17;23.10;;;3.45;;
19965;SDS011;10144;50.874;4.762;2023-11-19T04:56:48;29.48;;;3.03;;
19965;SDS011;10144;50.874;4.762;2023-11-19T04:59:14;32.97;;;3.42;;
19965;SDS011;10144;50.874;4.762;2023-11-19T05:01:46;33.75;;;3.42;;
19965;SDS011;10144;50.874;4.762;2023-11-19T05:04:19;30.08;;;3.58;;
19965;SDS011;10144;50.874;4.762;2023-11-19T05:06:44;30.48;;;3.47;;
19965;SDS011;10144;50.874;4.762;2023-11-19T05:11:45;48.87;;;3.90;;
19965;SDS011;10144;50.874;4.762;2023-11-19T05:16:40;28.90;;;3.80;;
19965;SDS011;10144;50.874;4.762;2023-11-19T05:19:06;32.78;;;3.85;;
19965;SDS011;10144;50.874;4.762;2023-11-19T05:26:47;34.67;;;3.70;;
19965;SDS011;10144;50.874;4.762;2023-11-19T05:29:18;31.90;;;4.10;;
19965;SDS011;10144;50.874;4.762;2023-11-19T05:31:50;41.47;;;4.75;;
19965;SDS011;10144;50.874;4.762;2023-11-19T05:36:45;26.65;;;3.15;;
19965;SDS011;10144;50.874;4.762;2023-11-19T05:41:43;31.27;;;4.13;;
19965;SDS011;10144;50.874;4.762;2023-11-19T05:46:38;34.53;;;4.05;;
19965;SDS011;10144;50.874;4.762;2023-11-19T05:51:39;34.23;;;4.13;;
19965;SDS011;10144;50.874;4.762;2023-11-19T05:54:09;30.37;;;4.07;;
19965;SDS011;10144;50.874;4.762;2023-11-19T06:01:43;34.63;;;4.20;;
19965;SDS011;10144;50.874;4.762;2023-11-19T06:04:12;36.23;;;3.70;;
19965;SDS011;10144;50.874;4.762;2023-11-19T06:06:40;37.70;;;4.28;;
19965;SDS011;10144;50.874;4.762;2023-11-19T06:09:07;33.67;;;4.10;;
19965;SDS011;10144;50.874;4.762;2023-11-19T06:11:37;31.30;;;4.13;;
19965;SDS011;10144;50.874;4.762;2023-11-19T06:14:06;38.50;;;4.80;;
19965;SDS011;10144;50.874;4.762;2023-11-19T06:16:38;41.17;;;4.33;;
19965;SDS011;10144;50.874;4.762;2023-11-19T06:19:10;40.93;;;4.10;;
19965;SDS011;10144;50.874;4.762;2023-11-19T06:24:07;33.30;;;3.77;;
19965;SDS011;10144;50.874;4.762;2023-11-19T06:26:36;39.13;;;4.90;;
19965;SDS011;10144;50.874;4.762;2023-11-19T06:29:07;32.20;;;4.43;;
19965;SDS011;10144;50.874;4.762;2023-11-19T06:31:43;31.73;;;3.77;;
19965;SDS011;10144;50.874;4.762;2023-11-19T06:34:18;36.27;;;4.47;;
19965;SDS011;10144;50.874;4.762;2023-11-19T06:36:44;27.07;;;4.43;;
19965;SDS011;10144;50.874;4.762;2023-11-19T06:39:10;34.03;;;3.60;;
19965;SDS011;10144;50.874;4.762;2023-11-19T06:41:45;35.87;;;3.97;;
19965;SDS011;10144;50.874;4.762;2023-11-19T06:44:17;26.20;;;3.40;;
19965;SDS011;10144;50.874;4.762;2023-11-19T06:46:48;34.67;;;3.97;;
19965;SDS011;10144;50.874;4.762;2023-11-19T06:49:15;31.87;;;3.93;;
19965;SDS011;10144;50.874;4.762;2023-11-19T06:51:47;37.40;;;4.40;;
19965;SDS011;10144;50.874;4.762;2023-11-19T06:54:19;33.23;;;3.70;;
19965;SDS011;10144;50.874;4.762;2023-11-19T06:56:48;32.73;;;3.60;;
19965;SDS011;10144;50.874;4.762;2023-11-19T06:59:14;35.93;;;4.07;;
19965;SDS011;10144;50.874;4.762;2023-11-19T07:01:43;26.80;;;3.47;;
19965;SDS011;10144;50.874;4.762;2023-11-19T07:04:11;34.20;;;4.13;;
19965;SDS011;10144;50.874;4.762;2023-11-19T07:06:39;31.87;;;3.73;;
19965;SDS011;10144;50.874;4.762;2023-11-19T07:12:11;35.53;;;3.80;;
19965;SDS011;10144;50.874;4.762;2023-11-19T07:14:38;27.63;;;3.83;;
19965;SDS011;10144;50.874;4.762;2023-11-19T07:19:37;37.03;;;3.87;;
19965;SDS011;10144;50.874;4.762;2023-11-19T07:22:04;43.17;;;3.90;;
19965;SDS011;10144;50.874;4.762;2023-11-19T07:24:31;35.43;;;4.07;;
19965;SDS011;10144;50.874;4.762;2023-11-19T07:27:00;37.10;;;4.60;;
19965;SDS011;10144;50.874;4.762;2023-11-19T07:29:31;36.90;;;3.97;;
19965;SDS011;10144;50.874;4.762;2023-11-19T07:31:57;27.63;;;3.93;;
19965;SDS011;10144;50.874;4.762;2023-11-19T07:34:30;36.57;;;5.10;;
19965;SDS011;10144;50.874;4.762;2023-11-19T07:37:01;32.83;;;3.77;;
19965;SDS011;10144;50.874;4.762;2023-11-19T07:39:36;32.60;;;3.57;;
19965;SDS011;10144;50.874;4.762;2023-11-19T07:42:05;23.30;;;3.45;;
19965;SDS011;10144;50.874;4.762;2023-11-19T07:50:33;36.55;;;3.80;;
19965;SDS011;10144;50.874;4.762;2023-11-19T07:52:58;35.83;;;4.32;;
19965;SDS011;10144;50.874;4.762;2023-11-19T07:55:25;42.03;;;4.50;;
19965;SDS011;10144;50.874;4.762;2023-11-19T07:57:53;26.88;;;3.95;;
19965;SDS011;10144;50.874;4.762;2023-11-19T08:00:18;32.90;;;3.97;;
19965;SDS011;10144;50.874;4.762;2023-11-19T08:02:44;22.70;;;3.70;;
19965;SDS011;10144;50.874;4.762;2023-11-19T08:05:10;27.02;;;3.55;;
19965;SDS011;10144;50.874;4.762;2023-11-19T08:07:36;28.52;;;3.92;;
19965;SDS011;10144;50.874;4.762;2023-11-19T08:10:04;30.15;;;3.50;;
19965;SDS011;10144;50.874;4.762;2023-11-19T08:12:31;21.80;;;2.47;;
19965;SDS011;10144;50.874;4.762;2023-11-19T08:14:56;28.23;;;3.53;;
19965;SDS011;10144;50.874;4.762;2023-11-19T08:17:24;26.25;;;3.08;;
19965;SDS011;10144;50.874;4.762;2023-11-19T08:19:56;24.20;;;3.35;;
19965;SDS011;10144;50.874;4.762;2023-11-19T08:22:22;23.50;;;3.40;;
19965;SDS011;10144;50.874;4.762;2023-11-19T08:27:19;22.10;;;3.80;;
19965;SDS011;10144;50.874;4.762;2023-11-19T08:29:54;27.10;;;3.75;;
19965;SDS011;10144;50.874;4.762;2023-11-19T08:32:24;27.38;;;3.90;;
19965;SDS011;10144;50.874;4.762;2023-11-19T08:34:59;28.60;;;3.45;;
19965;SDS011;10144;50.874;4.762;2023-11-19T08:37:25;26.58;;;3.50;;
19965;SDS011;10144;50.874;4.762;2023-11-19T08:39:54;26.75;;;3.55;;
19965;SDS011;10144;50.874;4.762;2023-11-19T08:42:25;23.95;;;3.95;;
19965;SDS011;10144;50.874;4.762;2023-11-19T08:44:57;23.77;;;3.47;;
19965;SDS011;10144;50.874;4.762;2023-11-19T08:47:26;29.70;;;4.57;;
19965;SDS011;10144;50.874;4.762;2023-11-19T08:49:54;24.58;;;3.97;;
19965;SDS011;10144;50.874;4.762;2023-11-19T08:52:20;20.15;;;4.10;;
19965;SDS011;10144;50.874;4.762;2023-11-19T08:54:46;20.05;;;3.35;;
19965;SDS011;10144;50.874;4.762;2023-11-19T08:57:11;29.55;;;4.10;;
19965;SDS011;10144;50.874;4.762;2023-11-19T08:59:37;25.67;;;3.85;;
19965;SDS011;10144;50.874;4.762;2023-11-19T09:02:04;31.27;;;4.22;;
19965;SDS011;10144;50.874;4.762;2023-11-19T09:04:30;30.38;;;3.92;;
19965;SDS011;10144;50.874;4.762;2023-11-19T09:06:57;25.60;;;3.40;;
19965;SDS011;10144;50.874;4.762;2023-11-19T09:09:23;26.73;;;3.78;;
19965;SDS011;10144;50.874;4.762;2023-11-19T09:11:49;22.25;;;3.10;;
19965;SDS011;10144;50.874;4.762;2023-11-19T09:14:15;22.73;;;3.90;;
19965;SDS011;10144;50.874;4.762;2023-11-19T09:16:40;29.08;;;3.53;;
19965;SDS011;10144;50.874;4.762;2023-11-19T09:19:06;23.90;;;3.40;;
19965;SDS011;10144;50.874;4.762;2023-11-19T09:21:32;26.50;;;3.63;;
19965;SDS011;10144;50.874;4.762;2023-11-19T09:23:59;24.27;;;3.50;;
19965;SDS011;10144;50.874;4.762;2023-11-19T09:26:25;26.85;;;3.50;;
19965;SDS011;10144;50.874;4.762;2023-11-19T09:28:50;39.40;;;4.28;;
19965;SDS011;10144;50.874;4.762;2023-11-19T09:31:16;24.27;;;3.88;;
19965;SDS011;10144;50.874;4.762;2023-11-19T09:33:43;26.25;;;3.20;;
19965;SDS011;10144;50.874;4.762;2023-11-19T09:36:08;20.75;;;3.30;;
19965;SDS011;10144;50.874;4.762;2023-11-19T09:38:37;23.15;;;3.45;;
19965;SDS011;10144;50.874;4.762;2023-11-19T09:41:06;20.00;;;2.65;;
19965;SDS011;10144;50.874;4.762;2023-11-19T09:43:38;20.67;;;3.17;;
19965;SDS011;10144;50.874;4.762;2023-11-19T09:46:10;22.00;;;2.90;;
19965;SDS011;10144;50.874;4.762;2023-11-19T09:48:39;31.77;;;3.67;;
19965;SDS011;10144;50.874;4.762;2023-11-19T09:51:10;15.15;;;2.60;;
19965;SDS011;10144;50.874;4.762;2023-11-19T09:53:36;16.77;;;2.90;;
19965;SDS011;10144;50.874;4.762;2023-11-19T09:56:03;19.27;;;3.28;;
19965;SDS011;10144;50.874;4.762;2023-11-19T09:58:29;15.68;;;2.67;;
19965;SDS011;10144;50.874;4.762;2023-11-19T10:00:56;18.63;;;2.90;;
19965;SDS011;10144;50.874;4.762;2023-11-19T10:03:24;19.52;;;2.90;;
19965;SDS011;10144;50.874;4.762;2023-11-19T10:05:52;20.10;;;2.97;;
19965;SDS011;10144;50.874;4.762;2023-11-19T10:08:19;20.02;;;2.80;;
19965;SDS011;10144;50.874;4.762;2023-11-19T10:10:45;19.23;;;2.60;;
19965;SDS011;10144;50.874;4.762;2023-11-19T10:13:12;18.58;;;2.63;;
19965;SDS011;10144;50.874;4.762;2023-11-19T10:15:39;18.13;;;3.20;;
19965;SDS011;10144;50.874;4.762;2023-11-19T10:18:05;19.50;;;2.92;;
19965;SDS011;10144;50.874;4.762;2023-11-19T10:20:37;23.10;;;3.22;;
19965;SDS011;10144;50.874;4.762;2023-11-19T10:23:06;19.88;;;3.72;;
19965;SDS011;10144;50.874;4.762;2023-11-19T10:25:31;17.00;;;2.95;;
19965;SDS011;10144;50.874;4.762;2023-11-19T10:27:58;15.55;;;3.08;;
19965;SDS011;10144;50.874;4.762;2023-11-19T10:30:25;21.02;;;3.28;;
19965;SDS011;10144;50.874;4.762;2023-11-19T10:35:27;16.63;;;2.95;;
19965;SDS011;10144;50.874;4.762;2023-11-19T10:37:52;21.02;;;3.10;;
19965;SDS011;10144;50.874;4.762;2023-11-19T10:40:18;24.13;;;3.72;;
19965;SDS011;10144;50.874;4.762;2023-11-19T10:42:44;17.02;;;3.10;;
19965;SDS011;10144;50.874;4.762;2023-11-19T10:45:22;20.52;;;3.67;;
19965;SDS011;10144;50.874;4.762;2023-11-19T10:47:51;29.27;;;3.85;;
19965;SDS011;10144;50.874;4.762;2023-11-19T10:50:17;24.70;;;3.85;;
19965;SDS011;10144;50.874;4.762;2023-11-19T10:52:43;22.17;;;3.30;;
19965;SDS011;10144;50.874;4.762;2023-11-19T10:55:11;19.17;;;3.30;;
19965;SDS011;10144;50.874;4.762;2023-11-19T10:57:40;23.10;;;2.88;;
19965;SDS011;10144;50.874;4.762;2023-11-19T11:00:11;20.00;;;3.50;;
19965;SDS011;10144;50.874;4.762;2023-11-19T11:02:40;27.90;;;2.78;;
19965;SDS011;10144;50.874;4.762;2023-11-19T11:05:08;21.70;;;2.88;;
19965;SDS011;10144;50.874;4.762;2023-11-19T11:07:34;21.40;;;3.50;;
19965;SDS011;10144;50.874;4.762;2023-11-19T11:10:01;18.63;;;2.38;;
19965;SDS011;10144;50.874;4.762;2023-11-19T11:12:28;19.63;;;2.40;;
19965;SDS011;10144;50.874;4.762;2023-11-19T11:14:56;17.88;;;2.15;;
19965;SDS011;10144;50.874;4.762;2023-11-19T11:17:22;15.40;;;2.50;;
19965;SDS011;10144;50.874;4.762;2023-11-19T11:19:53;19.15;;;2.55;;
19965;SDS011;10144;50.874;4.762;2023-11-19T11:22:18;19.85;;;2.97;;
19965;SDS011;10144;50.874;4.762;2023-11-19T11:38:12;21.60;;;3.22;;
19965;SDS011;10144;50.874;4.762;2023-11-19T11:40:39;20.20;;;3.28;;
19965;SDS011;10144;50.874;4.762;2023-11-19T11:43:20;28.65;;;3.03;;
19965;SDS011;10144;50.874;4.762;2023-11-19T11:46:56;26.73;;;3.55;;
19965;SDS011;10144;50.874;4.762;2023-11-19T11:49:02;27.00;;;3.38;;
19965;SDS011;10144;50.874;4.762;2023-11-19T12:02:10;21.02;;;2.95;;
19965;SDS011;10144;50.874;4.762;2023-11-19T12:04:46;20.42;;;3.05;;
19965;SDS011;10144;50.874;4.762;2023-11-19T12:07:23;19.17;;;2.85;;
19965;SDS011;10144;50.874;4.762;2023-11-19T12:09:56;17.77;;;2.95;;
19965;SDS011;10144;50.874;4.762;2023-11-19T12:12:34;25.30;;;3.00;;
19965;SDS011;10144;50.874;4.762;2023-11-19T12:15:07;23.02;;;4.10;;
19965;SDS011;10144;50.874;4.762;2023-11-19T12:17:37;24.80;;;3.35;;
19965;SDS011;10144;50.874;4.762;2023-11-19T12:20:06;20.83;;;3.50;;
19965;SDS011;10144;50.874;4.762;2023-11-19T12:22:39;19.88;;;2.72;;
19965;SDS011;10144;50.874;4.762;2023-11-19T12:25:06;23.58;;;3.08;;
19965;SDS011;10144;50.874;4.762;2023-11-19T12:27:34;18.40;;;3.00;;
19965;SDS011;10144;50.874;4.762;2023-11-19T12:30:00;19.25;;;3.10;;
19965;SDS011;10144;50.874;4.762;2023-11-19T12:32:37;15.38;;;2.42;;
19965;SDS011;10144;50.874;4.762;2023-11-19T12:35:08;17.75;;;2.78;;
19965;SDS011;10144;50.874;4.762;2023-11-19T12:37:40;14.43;;;2.53;;
19965;SDS011;10144;50.874;4.762;2023-11-19T12:40:11;15.98;;;2.80;;
19965;SDS011;10144;50.874;4.762;2023-11-19T12:42:38;16.35;;;2.67;;
19965;SDS011;10144;50.874;4.762;2023-11-19T12:45:04;17.45;;;3.03;;
19965;SDS011;10144;50.874;4.762;2023-11-19T12:47:30;22.35;;;3.10;;
19965;SDS011;10144;50.874;4.762;2023-11-19T12:49:56;19.73;;;3.30;;
19965;SDS011;10144;50.874;4.762;2023-11-19T12:52:22;22.73;;;2.90;;
19965;SDS011;10144;50.874;4.762;2023-11-19T12:54:48;27.63;;;3.28;;
19965;SDS011;10144;50.874;4.762;2023-11-19T12:57:14;21.98;;;3.00;;
19965;SDS011;10144;50.874;4.762;2023-11-19T12:59:41;20.73;;;3.20;;
19965;SDS011;10144;50.874;4.762;2023-11-19T13:02:08;24.08;;;2.95;;
19965;SDS011;10144;50.874;4.762;2023-11-19T13:04:34;19.73;;;3.05;;
19965;SDS011;10144;50.874;4.762;2023-11-19T13:07:00;21.67;;;3.00;;
19965;SDS011;10144;50.874;4.762;2023-11-19T13:09:29;19.88;;;2.60;;
19965;SDS011;10144;50.874;4.762;2023-11-19T13:11:55;27.65;;;3.28;;
19965;SDS011;10144;50.874;4.762;2023-11-19T13:17:07;25.52;;;3.58;;
19965;SDS011;10144;50.874;4.762;2023-11-19T13:19:36;27.85;;;3.22;;
19965;SDS011;10144;50.874;4.762;2023-11-19T13:22:05;28.38;;;4.28;;
19965;SDS011;10144;50.874;4.762;2023-11-19T13:24:36;34.50;;;3.75;;
19965;SDS011;10144;50.874;4.762;2023-11-19T13:27:02;23.20;;;3.05;;
19965;SDS011;10144;50.874;4.762;2023-11-19T13:29:29;21.00;;;2.97;;
19965;SDS011;10144;50.874;4.762;2023-11-19T13:31:54;18.92;;;3.00;;
19965;SDS011;10144;50.874;4.762;2023-11-19T13:34:23;17.60;;;2.80;;
19965;SDS011;10144;50.874;4.762;2023-11-19T13:36:48;26.40;;;3.03;;
19965;SDS011;10144;50.874;4.762;2023-11-19T13:39:14;22.73;;;3.20;;
19965;SDS011;10144;50.874;4.762;2023-11-19T13:41:47;19.98;;;2.60;;
19965;SDS011;10144;50.874;4.762;2023-11-19T13:44:13;17.67;;;2.70;;
19965;SDS011;10144;50.874;4.762;2023-11-19T13:46:39;22.10;;;3.25;;
19965;SDS011;10144;50.874;4.762;2023-11-19T13:49:04;25.02;;;3.47;;
19965;SDS011;10144;50.874;4.762;2023-11-19T13:51:30;22.27;;;2.88;;
19965;SDS011;10144;50.874;4.762;2023-11-19T13:53:56;19.30;;;2.90;;
19965;SDS011;10144;50.874;4.762;2023-11-19T13:56:22;25.83;;;3.28;;
19965;SDS011;10144;50.874;4.762;2023-11-19T13:58:48;20.95;;;3.10;;
19965;SDS011;10144;50.874;4.762;2023-11-19T14:01:13;25.65;;;3.28;;
19965;SDS011;10144;50.874;4.762;2023-11-19T14:03:39;22.83;;;3.72;;
19965;SDS011;10144;50.874;4.762;2023-11-19T14:06:05;27.15;;;3.78;;
19965;SDS011;10144;50.874;4.762;2023-11-19T14:08:33;32.20;;;3.65;;
19965;SDS011;10144;50.874;4.762;2023-11-19T14:10:58;27.15;;;3.58;;
19965;SDS011;10144;50.874;4.762;2023-11-19T14:13:24;27.08;;;3.63;;
19965;SDS011;10144;50.874;4.762;2023-11-19T14:15:50;21.95;;;3.22;;
19965;SDS011;10144;50.874;4.762;2023-11-19T14:18:16;25.40;;;3.95;;
19965;SDS011;10144;50.874;4.762;2023-11-19T14:20:42;22.58;;;2.92;;
19965;SDS011;10144;50.874;4.762;2023-11-19T14:23:09;26.75;;;3.80;;
19965;SDS011;10144;50.874;4.762;2023-11-19T14:25:34;27.65;;;3.80;;
19965;SDS011;10144;50.874;4.762;2023-11-19T14:28:00;31.40;;;3.05;;
19965;SDS011;10144;50.874;4.762;2023-11-19T14:30:25;22.33;;;2.92;;
19965;SDS011;10144;50.874;4.762;2023-11-19T14:32:51;27.33;;;3.45;;
19965;SDS011;10144;50.874;4.762;2023-11-19T14:35:18;29.38;;;3.83;;
19965;SDS011;10144;50.874;4.762;2023-11-19T14:37:45;24.55;;;3.60;;
19965;SDS011;10144;50.874;4.762;2023-11-19T14:40:11;29.65;;;3.75;;
19965;SDS011;10144;50.874;4.762;2023-11-19T14:42:37;28.75;;;3.60;;
19965;SDS011;10144;50.874;4.762;2023-11-19T14:45:04;35.05;;;3.88;;
19965;SDS011;10144;50.874;4.762;2023-11-19T14:47:30;26.08;;;3.50;;
19965;SDS011;10144;50.874;4.762;2023-11-19T14:49:56;24.00;;;3.28;;
19965;SDS011;10144;50.874;4.762;2023-11-19T14:52:21;34.97;;;4.03;;
19965;SDS011;10144;50.874;4.762;2023-11-19T14:54:47;39.33;;;4.20;;
19965;SDS011;10144;50.874;4.762;2023-11-19T14:57:14;27.02;;;3.78;;
19965;SDS011;10144;50.874;4.762;2023-11-19T14:59:40;27.27;;;3.55;;
19965;SDS011;10144;50.874;4.762;2023-11-19T15:02:06;22.50;;;3.70;;
19965;SDS011;10144;50.874;4.762;2023-11-19T15:04:31;24.50;;;3.40;;
19965;SDS011;10144;50.874;4.762;2023-11-19T15:06:58;31.67;;;3.83;;
19965;SDS011;10144;50.874;4.762;2023-11-19T15:09:24;26.55;;;3.22;;
19965;SDS011;10144;50.874;4.762;2023-11-19T15:11:50;24.48;;;3.60;;
19965;SDS011;10144;50.874;4.762;2023-11-19T15:14:20;24.67;;;3.33;;
19965;SDS011;10144;50.874;4.762;2023-11-19T15:16:46;28.42;;;4.05;;
19965;SDS011;10144;50.874;4.762;2023-11-19T15:19:13;31.48;;;3.58;;
19965;SDS011;10144;50.874;4.762;2023-11-19T15:21:39;32.17;;;3.83;;
19965;SDS011;10144;50.874;4.762;2023-11-19T15:24:06;36.22;;;3.67;;
19965;SDS011;10144;50.874;4.762;2023-11-19T15:26:33;24.27;;;2.95;;
19965;SDS011;10144;50.874;4.762;2023-11-19T15:29:04;25.02;;;3.67;;
19965;SDS011;10144;50.874;4.762;2023-11-19T15:31:30;22.15;;;3.10;;
19965;SDS011;10144;50.874;4.762;2023-11-19T15:33:57;26.45;;;3.60;;
19965;SDS011;10144;50.874;4.762;2023-11-19T15:36:29;26.30;;;3.75;;
19965;SDS011;10144;50.874;4.762;2023-11-19T15:39:07;34.92;;;4.95;;
19965;SDS011;10144;50.874;4.762;2023-11-19T15:41:33;34.00;;;4.50;;
19965;SDS011;10144;50.874;4.762;2023-11-19T15:44:12;31.65;;;4.18;;
19965;SDS011;10144;50.874;4.762;2023-11-19T15:46:40;29.50;;;3.85;;
19965;SDS011;10144;50.874;4.762;2023-11-19T15:49:06;24.88;;;4.05;;
19965;SDS011;10144;50.874;4.762;2023-11-19T15:51:35;23.25;;;3.53;;
19965;SDS011;10144;50.874;4.762;2023-11-19T15:54:01;28.65;;;3.60;;
19965;SDS011;10144;50.874;4.762;2023-11-19T15:56:27;21.88;;;3.45;;
19965;SDS011;10144;50.874;4.762;2023-11-19T15:58:56;25.10;;;3.50;;
19965;SDS011;10144;50.874;4.762;2023-11-19T16:01:27;33.60;;;4.43;;
19965;SDS011;10144;50.874;4.762;2023-11-19T16:03:55;30.33;;;3.30;;
19965;SDS011;10144;50.874;4.762;2023-11-19T16:06:21;32.05;;;4.32;;
19965;SDS011;10144;50.874;4.762;2023-11-19T16:11:19;24.98;;;3.47;;
19965;SDS011;10144;50.874;4.762;2023-11-19T16:16:52;29.38;;;3.40;;
19965;SDS011;10144;50.874;4.762;2023-11-19T16:19:18;25.02;;;3.15;;
19965;SDS011;10144;50.874;4.762;2023-11-19T16:21:47;21.60;;;3.45;;
19965;SDS011;10144;50.874;4.762;2023-11-19T16:24:13;21.42;;;3.03;;
19965;SDS011;10144;50.874;4.762;2023-11-19T16:26:45;20.08;;;2.85;;
19965;SDS011;10144;50.874;4.762;2023-11-19T16:29:11;20.63;;;3.45;;
19965;SDS011;10144;50.874;4.762;2023-11-19T16:31:40;21.65;;;3.20;;
19965;SDS011;10144;50.874;4.762;2023-11-19T16:34:08;22.00;;;3.45;;
19965;SDS011;10144;50.874;4.762;2023-11-19T16:36:37;18.67;;;2.60;;
19965;SDS011;10144;50.874;4.762;2023-11-19T16:39:04;21.83;;;2.90;;
19965;SDS011;10144;50.874;4.762;2023-11-19T16:41:34;22.02;;;3.08;;
19965;SDS011;10144;50.874;4.762;2023-11-19T16:44:02;19.00;;;2.70;;
19965;SDS011;10144;50.874;4.762;2023-11-19T16:46:30;24.48;;;2.70;;
19965;SDS011;10144;50.874;4.762;2023-11-19T16:48:56;18.23;;;2.88;;
19965;SDS011;10144;50.874;4.762;2023-11-19T16:51:33;24.38;;;3.15;;
19965;SDS011;10144;50.874;4.762;2023-11-19T16:54:00;25.05;;;3.13;;
19965;SDS011;10144;50.874;4.762;2023-11-19T17:01:41;20.83;;;3.35;;
19965;SDS011;10144;50.874;4.762;2023-11-19T17:04:09;24.42;;;3.78;;
19965;SDS011;10144;50.874;4.762;2023-11-19T17:06:38;20.92;;;3.20;;
19965;SDS011;10144;50.874;4.762;2023-11-19T17:09:11;15.20;;;4.13;;
19965;SDS011;10144;50.874;4.762;2023-11-19T17:11:39;28.77;;;3.45;;